Latest Weather Observations for Adelaide

IDS60801

Issued at 5:35 pm CST Wednesday 23 April 2014 (issued every 30 minutes, with the page automatically refreshed every 10 minutes)

About weather observations | Map of weather stations | Latest weather observations for SA | Other Formats
Station Details ID: 023090 Name: KENT TOWN Lat: -34.92 Lon: 138.62 Height: 48.0 m
Data from the previous 72 hours. | See also: Recent months at Adelaide
Date/Time
CST
Temp
°C
App
Temp
°C
Dew
Point
Rel
Hum
%
Delta-T
°C
Wind Press
QNH
hPa
Press
MSL
hPa
Rain
since 9 am
mm
Dir
 
Spd
km/h
Gust
km/h
Spd
kts
Gust
kts
23/05:30pm 18.6 16.4 6.0 43 6.2 NNW 7 9 4 5 1014.7 - 0.0
23/05:00pm 19.3 17.0 4.9 38 7.0 NW 6 9 3 5 1014.7 - 0.0
23/04:30pm 19.2 16.6 4.1 37 7.2 NNW 7 11 4 6 1014.7 - 0.0
23/04:00pm 19.6 16.4 3.2 33 7.7 NNW 9 11 5 6 1014.6 - 0.0
23/03:30pm 20.6 17.6 4.3 34 7.9 SW 9 13 5 7 1014.9 - 0.0
23/03:00pm 20.1 17.0 3.7 34 7.8 SSW 9 15 5 8 1014.9 1014.9 0.0
23/02:30pm 20.4 17.1 4.8 36 7.6 WNW 11 17 6 9 1015.2 - 0.0
23/02:00pm 19.9 16.7 5.2 38 7.2 NW 11 15 6 8 1015.2 - 0.0
23/01:30pm 19.9 16.5 5.8 39 7.0 W 13 20 7 11 1015.7 - 0.0
23/01:00pm 20.6 18.2 6.8 40 7.0 W 9 17 5 9 1016.2 - 0.0
23/12:30pm 20.1 17.6 6.6 41 6.8 WNW 9 19 5 10 1016.8 - 0.0
23/12:00pm 18.9 15.7 5.1 40 6.7 W 11 17 6 9 1017.3 1017.3 0.0
23/11:30am 19.4 17.0 5.3 39 6.9 W 7 13 4 7 1017.8 - 0.0
23/11:00am 18.5 16.2 5.6 42 6.3 NNW 7 11 4 6 1018.2 - 0.0
23/10:30am 17.9 15.7 5.5 44 6.0 NNE 6 11 3 6 1018.3 - 0.0
23/10:00am 17.0 14.5 6.4 49 5.2 N 9 13 5 7 1018.6 - 0.0
23/09:30am 16.7 14.7 7.3 54 4.7 NNE 7 11 4 6 1018.8 - 0.0
23/09:00am 14.6 14.1 7.7 63 3.4 CALM 0 0 0 0 1018.8 1018.8 0.0
23/08:30am 12.6 11.9 7.0 68 2.7 CALM 0 4 0 2 1018.7 - 0.0
23/08:00am 11.3 9.8 6.6 73 2.2 ENE 4 6 2 3 1018.4 - 0.0
23/07:30am 9.2 8.0 6.6 84 1.2 E 2 7 1 4 1018.2 - 0.0
23/07:00am 8.6 7.8 6.7 88 0.9 CALM 0 0 0 0 1018.2 - 0.0
23/06:30am 8.2 7.0 6.5 89 0.8 ENE 2 6 1 3 1017.8 - 0.0
23/06:00am 8.5 7.7 6.6 88 0.9 CALM 0 7 0 4 1017.8 1017.8 0.0
23/05:30am 9.0 7.0 6.9 87 1.0 ENE 7 9 4 5 1017.7 - 0.0
23/05:00am 9.2 7.3 6.8 85 1.1 NE 6 11 3 6 1017.9 - 0.0
23/04:30am 9.1 8.3 6.7 85 1.1 CALM 0 0 0 0 1017.9 - 0.0
23/04:00am 9.4 8.7 6.8 84 1.2 CALM 0 0 0 0 1017.7 - 0.0
23/03:30am 9.2 8.5 7.1 87 1.0 CALM 0 0 0 0 1017.8 - 0.0
23/03:00am 9.6 8.9 7.1 84 1.2 CALM 0 0 0 0 1017.9 1017.9 0.0
23/02:30am 10.1 9.4 7.1 81 1.4 CALM 0 0 0 0 1018.0 - 0.0
23/02:00am 10.6 10.0 7.2 79 1.6 CALM 0 0 0 0 1018.2 - 0.0
23/01:30am 10.8 10.2 7.2 78 1.7 CALM 0 0 0 0 1018.4 - 0.0
23/01:00am 11.3 10.6 7.1 75 2.0 CALM 0 0 0 0 1018.5 - 0.0
23/12:30am 11.7 9.9 7.3 74 2.1 NE 6 7 3 4 1018.7 - 0.0
23/12:00am 12.2 10.9 7.5 73 2.3 E 4 9 2 5 1018.9 1018.9 0.0
 
Date/Time
CST
Temp
°C
App
Temp
°C
Dew
Point
Rel
Hum
%
Delta-T
°C
Wind Press
QNH
hPa
Press
MSL
hPa
Rain
since 9 am
mm
Dir
 
Spd
km/h
Gust
km/h
Spd
kts
Gust
kts
22/11:30pm 12.7 11.8 7.6 71 2.5 SE 2 7 1 4 1019.0 - 0.0
22/11:00pm 13.1 12.1 7.3 68 2.8 SSE 2 9 1 5 1019.2 - 0.0
22/10:30pm 13.2 12.1 7.0 66 3.0 SW 2 7 1 4 1019.1 - 0.0
22/10:00pm 14.1 12.4 5.9 57 3.9 SSE 4 11 2 6 1019.1 - 0.0
22/09:30pm 14.3 13.0 6.2 58 3.9 SSE 2 6 1 3 1019.1 - 0.0
22/09:00pm 14.9 12.6 5.9 55 4.3 SSE 7 11 4 6 1019.3 1019.3 0.0
22/08:30pm 15.3 12.5 5.1 50 4.8 SSE 9 15 5 8 1019.0 - 0.0
22/08:00pm 15.1 13.6 5.1 51 4.7 NW 2 9 1 5 1019.0 - 0.0
22/07:30pm 15.4 13.2 6.1 54 4.5 ESE 7 13 4 7 1018.8 - 0.0
22/07:00pm 15.8 12.3 7.1 56 4.3 SSE 15 20 8 11 1018.8 - 0.0
22/06:30pm 16.3 12.9 5.7 49 5.1 S 13 19 7 10 1018.4 - 0.0
22/06:00pm 17.0 13.3 6.2 49 5.3 S 15 22 8 12 1018.1 1018.1 0.0
22/05:30pm 17.6 13.4 5.7 45 5.8 SSW 17 28 9 15 1017.7 - 0.0
22/05:00pm 17.8 13.7 8.0 52 5.0 SW 19 30 10 16 1017.4 - 0.0
22/04:30pm 18.5 14.5 8.2 51 5.3 SW 19 28 10 15 1017.2 - 0.0
22/04:00pm 18.7 14.6 8.7 52 5.2 WSW 20 32 11 17 1017.1 - 0.0
22/03:30pm 19.4 15.3 8.7 50 5.6 SW 20 35 11 19 1017.0 - 0.0
22/03:00pm 19.8 15.4 9.0 49 5.7 WSW 22 33 12 18 1017.0 1017.0 0.0
22/02:30pm 20.3 16.5 8.9 48 6.0 WSW 19 32 10 17 1016.8 - 0.0
22/02:00pm 20.4 16.6 9.1 48 6.0 WSW 19 33 10 18 1016.7 - 0.0
22/01:30pm 20.0 15.9 8.8 48 5.9 SW 20 30 11 16 1016.6 - 0.0
22/01:00pm 20.7 16.7 9.2 47 6.1 SW 20 30 11 16 1016.8 - 0.0
22/12:30pm 20.4 17.3 10.2 52 5.5 SW 17 28 9 15 1017.0 - 0.0
22/12:00pm 21.1 17.5 8.5 44 6.6 SW 17 24 9 13 1017.2 1017.2 0.0
22/11:30am 20.4 17.6 8.6 46 6.2 SW 13 19 7 10 1017.4 - 0.0
22/11:00am 19.0 17.0 10.0 56 4.8 S 11 15 6 8 1017.6 - 0.0
22/10:30am 18.7 16.0 10.3 58 4.5 SSW 15 24 8 13 1017.6 - 0.0
22/10:00am 19.0 16.5 10.9 59 4.4 SSW 15 24 8 13 1017.5 - 0.0
22/09:30am 19.3 17.6 11.3 60 4.4 SSW 11 17 6 9 1017.3 - 0.0
22/09:00am 18.6 16.8 12.1 66 3.6 S 13 15 7 8 1017.2 1017.2 0.0
22/08:30am 18.0 15.9 12.4 70 3.1 S 15 20 8 11 1017.0 - 0.0
22/08:00am 17.2 15.9 12.5 74 2.6 SSW 11 15 6 8 1016.5 - 0.0
22/07:30am 17.0 15.7 12.5 75 2.5 S 11 17 6 9 1016.2 - 0.0
22/07:00am 17.0 16.6 14.2 83 1.6 SSW 9 13 5 7 1015.6 - 0.0
22/06:30am 17.0 15.8 14.0 82 1.7 SW 13 19 7 10 1014.9 - 0.0
22/06:00am 16.8 16.2 13.4 80 1.9 SSW 9 15 5 8 1014.4 1014.3 0.0
22/05:30am 17.1 16.8 13.4 79 2.1 SSW 7 13 4 7 1014.0 - 0.0
22/05:00am 17.2 16.4 13.9 81 1.9 SW 11 15 6 8 1013.7 - 0.0
22/04:30am 17.5 16.7 15.1 86 1.4 WSW 13 17 7 9 1013.4 - 0.0
22/04:00am 17.7 19.4 15.1 85 1.5 CALM 0 6 0 3 1012.9 - 0.0
22/03:30am 18.1 18.7 15.2 83 1.7 SW 6 7 3 4 1012.4 - 0.0
22/03:00am 18.3 18.4 15.4 83 1.7 SSW 9 13 5 7 1012.3 1012.3 0.0
22/02:30am 18.7 18.9 15.7 83 1.8 SW 9 17 5 9 1012.2 - 0.0
22/02:00am 20.5 19.1 12.1 58 4.7 W 11 22 6 12 1012.7 - 0.0
22/01:30am 20.1 19.1 11.0 55 5.0 N 7 13 4 7 1011.8 - 0.0
22/01:00am 19.8 18.7 11.9 60 4.4 ENE 9 13 5 7 1011.4 - 0.0
22/12:30am 20.0 18.4 11.7 59 4.6 ENE 11 17 6 9 1011.6 - 0.0
22/12:00am 19.8 20.6 12.7 63 4.0 CALM 0 0 0 0 1012.5 1012.5 0.0
 
Date/Time
CST
Temp
°C
App
Temp
°C
Dew
Point
Rel
Hum
%
Delta-T
°C
Wind Press
QNH
hPa
Press
MSL
hPa
Rain
since 9 am
mm
Dir
 
Spd
km/h
Gust
km/h
Spd
kts
Gust
kts
21/11:30pm 20.5 19.5 12.3 59 4.6 NE 9 13 5 7 1012.3 - 0.0
21/11:00pm 21.0 19.9 12.1 56 5.0 S 9 13 5 7 1012.1 - 0.0
21/10:30pm 21.8 19.6 10.7 49 6.1 W 13 20 7 11 1012.5 - 0.0
21/10:00pm 21.6 19.0 9.3 45 6.6 NE 13 19 7 10 1012.0 - 0.0
21/09:30pm 21.5 19.3 9.4 46 6.5 NE 11 15 6 8 1011.8 - 0.0
21/09:00pm 22.2 20.3 8.9 42 7.1 NNW 9 13 5 7 1011.9 1011.9 0.0
21/08:30pm 21.9 21.0 10.6 48 6.2 SSW 6 9 3 5 1011.9 - 0.0
21/08:00pm 23.2 21.7 8.3 38 7.9 WSW 6 11 3 6 1011.6 - 0.0
21/07:30pm 24.6 21.7 6.7 31 9.3 NNE 11 19 6 10 1011.2 - 0.0
21/07:00pm 25.2 21.9 6.3 29 9.8 N 13 20 7 11 1011.0 - 0.0
21/06:30pm 25.6 22.2 6.1 28 10.1 N 13 20 7 11 1011.0 - 0.0
21/06:00pm 25.8 22.5 6.4 29 10.1 N 13 20 7 11 1011.0 1011.0 0.0
21/05:30pm 26.4 22.5 6.9 29 10.3 N 17 30 9 16 1010.7 - 0.0
21/05:00pm 26.5 22.8 7.9 30 10.0 N 17 26 9 14 1010.6 - 0.0
21/04:30pm 27.2 23.1 7.7 29 10.5 NNW 19 33 10 18 1010.5 - 0.0
21/04:00pm 27.9 23.8 7.7 28 10.9 NNW 19 33 10 18 1010.8 - 0.0
21/03:30pm 27.7 22.6 7.7 28 10.8 NNW 24 39 13 21 1011.1 - 0.0
21/03:00pm 27.4 21.7 6.9 27 10.9 NNW 26 48 14 26 1011.1 1011.1 0.0
21/02:30pm 27.9 22.7 7.1 26 11.1 NNW 24 39 13 21 1011.1 - 0.0
21/02:00pm 27.6 22.3 6.9 27 11.0 NNW 24 41 13 22 1011.4 - 0.0
21/01:37pm 27.4 21.4 7.1 27 10.8 NNW 28 46 15 25 1011.6 - 0.0
21/01:30pm 27.4 21.7 6.8 27 10.9 NNW 26 46 14 25 1011.7 - 0.0
21/01:00pm 27.7 21.6 6.8 26 11.1 NNW 28 43 15 23 1012.1 - 0.0
21/12:43pm 27.6 21.4 6.3 26 11.2 NNW 28 46 15 25 1012.3 - 0.0
21/12:30pm 27.9 21.8 6.5 25 11.3 N 28 41 15 22 1012.5 - 0.0
21/12:00pm 27.5 21.4 6.7 26 11.0 NNW 28 43 15 23 1013.0 1012.9 0.0
21/11:30am 26.7 21.1 7.1 28 10.4 N 26 44 14 24 1013.6 - 0.0
21/11:00am 26.3 21.0 7.0 29 10.2 N 24 35 13 19 1013.9 - 0.0
21/10:30am 25.1 18.8 5.8 29 9.9 N 28 43 15 23 1014.1 - 0.0
21/10:00am 24.5 20.2 6.8 32 9.2 N 19 32 10 17 1014.4 - 0.0
21/09:30am 23.2 18.8 6.7 34 8.5 N 19 33 10 18 1014.6 - 0.0
21/09:00am 22.4 18.3 6.3 35 8.2 NNE 17 30 9 16 1014.5 1014.4 0.0
21/08:30am 21.3 18.1 6.8 39 7.4 NNE 13 20 7 11 1014.6 - 0.0
21/08:00am 20.6 17.0 6.6 40 7.1 NE 15 22 8 12 1014.6 - 0.0
21/07:30am 20.3 16.9 6.1 39 7.1 NNE 13 26 7 14 1014.4 - 0.0
21/07:00am 19.8 16.1 6.2 41 6.8 NE 15 22 8 12 1014.0 - 0.0
21/06:30am 19.7 16.0 6.3 41 6.7 NE 15 22 8 12 1014.0 - 0.0
21/06:00am 19.7 16.3 5.8 40 6.9 NE 13 26 7 14 1014.2 1014.1 0.0
21/05:30am 19.8 15.1 5.3 38 7.1 NE 19 30 10 16 1014.0 - 0.0
21/05:00am 19.8 15.2 5.6 39 7.0 NE 19 30 10 16 1014.1 - 0.0
21/04:30am 19.7 15.1 5.8 40 6.9 NE 19 30 10 16 1014.1 - 0.0
21/04:00am 19.6 15.0 5.6 40 6.9 NE 19 28 10 15 1014.3 - 0.0
21/03:30am 19.6 15.8 5.9 40 6.8 NNE 15 32 8 17 1014.6 - 0.0
21/03:00am 19.6 15.8 5.9 40 6.8 NNE 15 26 8 14 1014.7 1014.7 0.0
21/02:30am 19.5 15.0 6.3 42 6.6 NE 19 28 10 15 1014.6 - 0.0
21/02:00am 19.4 15.8 6.7 43 6.4 NE 15 28 8 15 1015.3 - 0.0
21/01:30am 19.1 15.6 7.0 45 6.1 NE 15 24 8 13 1015.8 - 0.0
21/01:00am 18.9 15.0 7.2 46 5.9 NE 17 28 9 15 1015.9 - 0.0
21/12:30am 18.1 15.4 8.9 55 4.8 NE 13 24 7 13 1016.1 - 0.0
21/12:00am 16.8 15.3 9.3 61 3.9 N 7 11 4 6 1016.7 1016.7 0.0
 
Date/Time
CST
Temp
°C
App
Temp
°C
Dew
Point
Rel
Hum
%
Delta-T
°C
Wind Press
QNH
hPa
Press
MSL
hPa
Rain
since 9 am
mm
Dir
 
Spd
km/h
Gust
km/h
Spd
kts
Gust
kts
20/11:30pm 15.4 13.6 9.6 68 3.0 NE 9 13 5 7 1016.6 - 0.0
20/11:00pm 15.3 14.4 10.6 73 2.5 N 6 7 3 4 1017.0 - 0.0
20/10:30pm 15.6 15.4 10.3 70 2.8 NE 2 6 1 3 1017.5 - 0.0
20/10:00pm 15.3 14.3 10.4 72 2.6 E 6 9 3 5 1017.6 - 0.0
20/09:30pm 15.3 15.5 10.6 73 2.5 CALM 0 0 0 0 1018.1 - 0.0
20/09:00pm 15.5 15.7 10.4 71 2.7 CALM 0 0 0 0 1018.0 1018.0 0.0
20/08:30pm 15.9 15.7 10.6 71 2.8 SE 2 6 1 3 1018.1 - 0.0
20/08:00pm 16.4 16.3 10.8 69 3.0 SE 2 6 1 3 1018.1 - 0.0
20/07:30pm 16.9 17.2 10.9 67 3.2 CALM 0 0 0 0 1018.2 - 0.0
20/07:00pm 17.8 17.7 10.7 63 3.8 E 2 7 1 4 1018.0 - 0.0
20/06:30pm 18.0 16.8 10.3 60 4.1 SSW 7 9 4 5 1018.4 - 0.0
20/06:00pm 18.5 17.7 11.1 62 4.0 SW 6 9 3 5 1017.9 1017.9 0.0

Other Formats:

Comma delimited format used in spreadsheet applications
http://www.bom.gov.au/fwo/IDS60801/IDS60801.94675.axf

JavaScript Object Notation format (JSON) in row-major order
http://www.bom.gov.au/fwo/IDS60801/IDS60801.94675.json